15:19
Airports
History
Links
Donate
Help keep this website running!
PayPal
Bitcoin
This page is community maintained. The information is intended for PC simulator navigation or reference.
Always use approved charts for navigation.
SBBZ
UMBERTO MODIANO
UMBERTO MODIANO (SBBZ)
Armação dos Búzios, Rio de Janeiro, Brazil (28950)
(U)
Lat/Lng:22° 46' 15.48" S / 41° 57' 47.76" W
-22.770967 / -41.963267
Elevation:10'ft / 3mMSL
ID / ICAO:SBBZ
Runways:1
Longest:07-25
Asphalt 1,288m / 4,224ft
Nearby Weather14:00 GMT 2018-01-16
Nearby weather at SBES, SAO PEDRO DA ALDEIA located 8.7 nautical miles from SBBZ
Altimeter: 29.97
Visibility: 6.2 statute miles
Wind: 7 knots (from 230°)
Temp: 32°c / 90°f
Humidity: 55.6%

METAR: SBES 161400Z 23007KT 9999 FEW040 32/22 Q1015

(Powered by phpweather)
Airport Radio Frequencies
Tower: 131.75
Approach: 119.45
Runway 07 / 25
Dimensions:1287.5 x 29.9m 4224' x 98'ft
Surface:Asphalt
Edge Lights:Low intensity
Runway 07 [A]Runway 25 [B]
Heading:052°TH 232°TH
Lat:
Lng:
22° 46' 28.3"S
41° 58' 5.59"W
22° 46' 2.66"S
41° 57' 29.93"W
User Notes and Comments
22° 46' 15.48" S / 41° 57' 47.76" W
Distance To
Airport ID:
Nearby Airports
(C) SAO PEDRO DA ALDEIA 8.7 NM
SBES ( WX ) WSW 250°
4 Fazenda Tosana 12.5 NM
SDLN NNW 340°
(U) CABO FRIO 12.6 NM
SBCB SW 214°
(U) Brig. Francisco Pinto de Moura 17.8 NM
SDCU NNW 327°
(U) Trimonte 18.7 NM
SNAO NNW 342°
(C) MACAE 32.1 NM
SBME ( WX ) NNE 23°
4 Saquarema 36.3 NM
SDSK WSW 252°
VFR Chart
Flight Planning at SkyVector.com